createdAt,value
2018-07-24T00:00:37.887Z,7.60
2018-07-24T00:03:05.958Z,8.23
2018-07-24T00:05:34.050Z,7.47
2018-07-24T00:08:02.099Z,9.30
2018-07-24T00:10:30.203Z,7.90
2018-07-24T00:12:58.283Z,7.30
2018-07-24T00:15:26.343Z,8.53
2018-07-24T00:17:54.418Z,8.40
2018-07-24T00:20:22.494Z,9.27
2018-07-24T00:22:51.575Z,10.90
2018-07-24T00:25:19.713Z,9.03
2018-07-24T00:27:47.806Z,8.20
2018-07-24T00:30:15.954Z,8.90
2018-07-24T00:32:44.242Z,8.53
2018-07-24T00:35:12.341Z,8.00
2018-07-24T00:37:40.419Z,8.40
2018-07-24T00:40:08.553Z,8.30
2018-07-24T00:42:36.659Z,8.33
2018-07-24T00:45:04.802Z,8.47
2018-07-24T00:47:32.995Z,10.67
2018-07-24T00:50:01.076Z,8.23
2018-07-24T00:52:29.157Z,8.87
2018-07-24T00:54:57.294Z,8.60
2018-07-24T00:57:25.364Z,9.53
2018-07-24T00:59:53.504Z,8.93
2018-07-24T01:02:22.262Z,8.97
2018-07-24T01:04:50.334Z,8.57
2018-07-24T01:07:18.420Z,8.80
2018-07-24T01:09:46.529Z,8.20
2018-07-24T01:12:14.651Z,9.30
2018-07-24T01:14:42.792Z,8.37
2018-07-24T01:17:10.901Z,8.93
2018-07-24T01:19:39.116Z,8.40
2018-07-24T01:22:07.672Z,8.37
2018-07-24T01:24:39.593Z,9.03
2018-07-24T01:27:07.680Z,8.33
2018-07-24T01:29:35.834Z,8.70
2018-07-24T01:32:03.902Z,8.87
2018-07-24T01:34:32.026Z,8.90
2018-07-24T01:37:00.090Z,10.03
2018-07-24T01:39:28.215Z,9.37
2018-07-24T01:41:56.310Z,8.37
2018-07-24T01:44:25.360Z,9.77
2018-07-24T01:46:53.480Z,8.90
2018-07-24T01:49:21.584Z,9.20
2018-07-24T01:51:49.642Z,9.03
2018-07-24T01:54:17.771Z,9.58
2018-07-24T01:56:45.907Z,8.63
2018-07-24T01:59:13.967Z,8.70
2018-07-24T02:01:43.240Z,9.17
2018-07-24T02:04:11.296Z,9.20
2018-07-24T02:06:39.403Z,9.73
2018-07-24T02:09:08.796Z,9.40
2018-07-24T02:11:36.848Z,9.60
2018-07-24T02:14:04.908Z,8.77
2018-07-24T02:16:32.983Z,9.10
2018-07-24T02:19:01.238Z,9.83
2018-07-24T02:21:29.378Z,10.00
2018-07-24T02:23:57.455Z,10.45
2018-07-24T02:26:25.555Z,9.68
2018-07-24T02:28:53.623Z,8.40
2018-07-24T02:31:21.763Z,10.05
2018-07-24T02:33:49.853Z,9.60
2018-07-24T02:36:18.099Z,9.95
2018-07-24T02:38:46.546Z,9.70
2018-07-24T02:41:14.636Z,9.88
2018-07-24T02:43:42.751Z,10.08
2018-07-24T02:46:10.850Z,11.15
2018-07-24T02:48:38.946Z,10.20
2018-07-24T02:51:07.051Z,9.75
2018-07-24T02:53:35.131Z,10.00
2018-07-24T02:56:03.296Z,9.80
2018-07-24T02:58:31.470Z,10.50
2018-07-24T03:00:59.568Z,10.20
2018-07-24T03:03:27.700Z,10.68
2018-07-24T03:05:55.822Z,10.28
2018-07-24T03:08:23.928Z,9.88
2018-07-24T03:10:52.028Z,10.05
2018-07-24T03:13:20.123Z,10.95
2018-07-24T03:15:48.255Z,10.18
2018-07-24T03:18:16.347Z,10.43
2018-07-24T03:20:44.443Z,10.93
2018-07-24T03:23:12.572Z,11.30
2018-07-24T03:25:40.660Z,10.80
2018-07-24T03:28:08.765Z,11.38
2018-07-24T03:30:36.869Z,11.88
2018-07-24T03:33:04.974Z,10.53
2018-07-24T03:35:33.082Z,10.85
2018-07-24T03:38:01.177Z,10.00
2018-07-24T03:40:29.310Z,9.93
2018-07-24T03:42:57.422Z,11.73
2018-07-24T03:45:25.556Z,11.83
2018-07-24T03:48:56.899Z,11.20
2018-07-24T03:51:25.050Z,11.05
2018-07-24T03:53:53.144Z,10.88
2018-07-24T03:56:21.258Z,9.90
2018-07-24T03:58:49.363Z,9.90
2018-07-24T04:01:17.576Z,11.00
2018-07-24T04:03:45.700Z,10.55
2018-07-24T04:06:13.787Z,11.33
2018-07-24T04:08:41.881Z,10.72
2018-07-24T04:11:10.057Z,10.70
2018-07-24T04:13:38.204Z,10.50
2018-07-24T04:16:06.299Z,13.65
2018-07-24T04:18:38.811Z,10.95
2018-07-24T04:21:06.908Z,10.65
2018-07-24T04:23:35.095Z,12.53
2018-07-24T04:26:03.224Z,12.05
2018-07-24T04:28:31.271Z,13.00
2018-07-24T04:30:59.486Z,11.45
2018-07-24T04:33:27.519Z,12.65
2018-07-24T04:35:55.604Z,10.38
2018-07-24T04:38:23.703Z,15.20
2018-07-24T04:40:51.771Z,10.57
2018-07-24T04:43:19.879Z,10.53
2018-07-24T04:45:47.959Z,12.10
2018-07-24T04:48:16.029Z,8.90
2018-07-24T04:50:44.111Z,10.60
2018-07-24T04:53:12.200Z,10.03
2018-07-24T04:55:40.311Z,10.37
2018-07-24T04:58:08.395Z,10.47
2018-07-24T05:00:36.474Z,10.90
2018-07-24T05:03:05.408Z,9.90
2018-07-24T05:05:34.028Z,9.27
2018-07-24T05:08:02.096Z,9.80
2018-07-24T05:10:30.682Z,9.67
2018-07-24T05:12:58.941Z,9.73
2018-07-24T05:15:27.120Z,9.27
2018-07-24T05:17:55.840Z,10.80
2018-07-24T05:20:23.908Z,8.60
2018-07-24T05:22:51.996Z,10.57
2018-07-24T05:25:20.299Z,9.47
2018-07-24T05:27:48.549Z,11.30
2018-07-24T05:30:16.642Z,11.43
2018-07-24T05:32:45.042Z,10.73
2018-07-24T05:35:13.181Z,11.50
2018-07-24T05:37:41.452Z,10.57
2018-07-24T05:40:09.519Z,10.10
2018-07-24T05:42:37.594Z,10.30
2018-07-24T05:45:05.739Z,10.10
2018-07-24T05:47:34.016Z,11.17
2018-07-24T05:50:02.280Z,11.23
2018-07-24T05:52:30.378Z,11.60
2018-07-24T05:54:58.501Z,10.67
2018-07-24T05:57:26.643Z,13.93
2018-07-24T05:59:54.701Z,13.37
2018-07-24T06:02:22.795Z,9.87
2018-07-24T06:04:50.860Z,12.40
2018-07-24T06:07:18.942Z,11.77
2018-07-24T06:09:47.125Z,12.03
2018-07-24T06:12:15.248Z,10.30
2018-07-24T06:14:43.303Z,9.30
2018-07-24T06:17:11.365Z,9.90
2018-07-24T06:19:39.446Z,9.97
2018-07-24T06:22:07.559Z,10.03
2018-07-24T06:24:35.627Z,9.47
2018-07-24T06:27:03.674Z,9.03
2018-07-24T06:29:31.772Z,9.00
2018-07-24T06:31:59.834Z,10.47
2018-07-24T06:34:27.886Z,8.77
2018-07-24T06:36:55.987Z,8.17
2018-07-24T06:39:24.053Z,8.20
2018-07-24T06:41:52.187Z,9.70
2018-07-24T06:44:20.276Z,8.87
2018-07-24T06:46:48.329Z,8.90
2018-07-24T06:49:16.411Z,8.63
2018-07-24T06:51:44.613Z,9.27
2018-07-24T06:54:12.564Z,8.20
2018-07-24T06:56:40.695Z,9.00
2018-07-24T06:59:08.715Z,8.10
2018-07-24T07:01:36.783Z,8.17
2018-07-24T07:04:04.939Z,10.27
2018-07-24T07:06:33.003Z,9.97
2018-07-24T07:09:05.709Z,8.23
2018-07-24T07:11:34.480Z,11.73
2018-07-24T07:14:03.268Z,9.00
2018-07-24T07:16:31.481Z,9.37
2018-07-24T07:18:59.580Z,8.90
2018-07-24T07:21:27.627Z,8.43
2018-07-24T07:23:55.688Z,8.13
2018-07-24T07:26:23.760Z,8.03
2018-07-24T07:28:51.863Z,8.63
2018-07-24T07:31:19.932Z,7.03
2018-07-24T07:33:48.046Z,9.67
2018-07-24T07:36:16.090Z,6.87
2018-07-24T07:38:44.147Z,7.80
2018-07-24T07:41:12.292Z,7.20
2018-07-24T07:43:40.387Z,6.93
2018-07-24T07:46:08.552Z,7.50
2018-07-24T07:48:36.606Z,7.30
2018-07-24T07:51:04.706Z,6.57
2018-07-24T07:53:32.873Z,7.30
2018-07-24T07:56:00.971Z,6.80
2018-07-24T07:58:29.042Z,6.73
2018-07-24T08:00:57.138Z,7.30
2018-07-24T08:03:25.209Z,7.97
2018-07-24T08:05:53.278Z,6.77
2018-07-24T08:08:21.358Z,8.50
2018-07-24T08:10:49.418Z,6.57
2018-07-24T08:13:17.493Z,8.03
2018-07-24T08:15:45.584Z,8.70
2018-07-24T08:18:13.663Z,7.73
2018-07-24T08:20:41.727Z,7.40
2018-07-24T08:23:09.803Z,8.17
2018-07-24T08:25:37.872Z,6.80
2018-07-24T08:28:06.081Z,8.10
2018-07-24T08:30:34.148Z,7.37
2018-07-24T08:33:02.206Z,6.87
2018-07-24T08:35:30.270Z,7.20
2018-07-24T08:37:58.358Z,7.83
2018-07-24T08:40:26.460Z,5.77
2018-07-24T08:42:54.556Z,6.23
2018-07-24T08:45:22.669Z,6.77
2018-07-24T08:47:50.734Z,6.30
2018-07-24T08:50:18.805Z,6.00
2018-07-24T08:52:46.974Z,6.33
2018-07-24T08:55:15.172Z,6.90
2018-07-24T08:57:43.096Z,6.73
2018-07-24T09:00:11.162Z,6.40
2018-07-24T09:02:39.258Z,6.60
2018-07-24T09:05:07.323Z,6.60
2018-07-24T09:07:35.408Z,6.27
2018-07-24T09:10:03.593Z,7.93
2018-07-24T09:12:31.655Z,13.77
2018-07-24T09:14:59.723Z,6.67
2018-07-24T09:17:27.831Z,6.53
2018-07-24T09:19:55.872Z,7.07
2018-07-24T09:22:23.933Z,7.50
2018-07-24T09:24:52.024Z,7.47
2018-07-24T09:27:20.098Z,7.00
2018-07-24T09:29:48.174Z,7.43
2018-07-24T09:32:16.283Z,7.03
2018-07-24T09:34:44.360Z,6.33
2018-07-24T09:37:12.423Z,6.40
2018-07-24T09:39:40.534Z,6.60
2018-07-24T09:42:08.587Z,7.43
2018-07-24T09:44:36.635Z,7.60
2018-07-24T09:47:04.728Z,8.13
2018-07-24T09:49:32.819Z,7.33
2018-07-24T09:52:00.875Z,8.03
2018-07-24T09:54:28.939Z,7.10
2018-07-24T09:56:56.986Z,7.67
2018-07-24T09:59:25.187Z,6.50
2018-07-24T10:01:53.250Z,6.50
2018-07-24T10:04:21.330Z,6.30
2018-07-24T10:06:49.447Z,7.97
2018-07-24T10:09:17.475Z,6.07
2018-07-24T10:11:45.535Z,5.80
2018-07-24T10:14:13.653Z,6.70
2018-07-24T10:16:41.918Z,6.30
2018-07-24T10:19:09.837Z,6.50
2018-07-24T10:21:37.923Z,6.90
2018-07-24T10:24:06.024Z,7.10
2018-07-24T10:26:34.080Z,6.43
2018-07-24T10:29:02.144Z,6.63
2018-07-24T10:31:30.263Z,5.37
2018-07-24T10:33:58.321Z,5.80
2018-07-24T10:36:26.422Z,4.93
2018-07-24T10:38:54.587Z,5.53
2018-07-24T10:41:22.651Z,5.40
2018-07-24T10:43:50.703Z,5.60
2018-07-24T10:46:18.826Z,6.40
2018-07-24T10:48:46.879Z,6.20
2018-07-24T10:51:14.943Z,6.07
2018-07-24T10:53:43.048Z,6.07
2018-07-24T10:56:11.124Z,6.27
2018-07-24T10:58:39.187Z,5.60
2018-07-24T11:01:07.308Z,6.90
2018-07-24T11:03:35.387Z,6.00
2018-07-24T11:06:03.459Z,5.77
2018-07-24T11:08:31.647Z,4.87
2018-07-24T11:10:59.730Z,5.60
2018-07-24T11:13:27.807Z,6.30
2018-07-24T11:15:55.903Z,6.40
2018-07-24T11:18:23.955Z,5.17
2018-07-24T11:20:52.020Z,6.10
2018-07-24T11:23:20.268Z,5.60
2018-07-24T11:25:48.268Z,5.90
2018-07-24T11:28:16.346Z,6.27
2018-07-24T11:30:44.545Z,5.73
2018-07-24T11:33:12.614Z,5.50
2018-07-24T11:35:40.778Z,5.93
2018-07-24T11:38:08.821Z,5.57
2018-07-24T11:40:36.899Z,5.30
2018-07-24T11:43:05.083Z,5.63
2018-07-24T11:45:33.145Z,6.67
2018-07-24T11:48:01.215Z,5.90
2018-07-24T11:50:29.284Z,6.70
2018-07-24T11:52:57.356Z,5.17
2018-07-24T11:55:25.423Z,4.73
2018-07-24T11:57:53.512Z,6.70
2018-07-24T12:00:21.579Z,5.70
2018-07-24T12:02:49.806Z,6.00
2018-07-24T12:05:21.347Z,5.60
2018-07-24T12:07:49.641Z,6.00
2018-07-24T12:10:17.717Z,6.30
2018-07-24T12:12:45.786Z,6.00
2018-07-24T12:15:13.899Z,5.80
2018-07-24T12:17:43.304Z,6.23
2018-07-24T12:20:11.352Z,6.33
2018-07-24T12:22:39.567Z,6.40
2018-07-24T12:25:07.603Z,5.87
2018-07-24T12:27:35.715Z,7.20
2018-07-24T12:30:03.880Z,6.10
2018-07-24T12:32:31.931Z,6.37
2018-07-24T12:35:00.000Z,5.70
2018-07-24T12:37:28.049Z,7.03
2018-07-24T12:39:56.123Z,7.10
2018-07-24T12:42:24.210Z,5.70
2018-07-24T12:44:52.275Z,5.70
2018-07-24T12:47:20.331Z,5.20
2018-07-24T12:49:48.400Z,6.07
2018-07-24T12:52:16.482Z,5.80
2018-07-24T12:54:44.580Z,6.73
2018-07-24T12:57:12.631Z,5.97
2018-07-24T12:59:40.517Z,6.57
2018-07-24T13:02:08.603Z,6.53
2018-07-24T13:04:36.661Z,5.30
2018-07-24T13:07:04.711Z,5.70
2018-07-24T13:09:32.770Z,6.00
2018-07-24T13:12:00.831Z,5.60
2018-07-24T13:14:28.915Z,5.80
2018-07-24T13:16:56.962Z,6.00
2018-07-24T13:19:25.074Z,5.80
2018-07-24T13:21:53.131Z,5.40
2018-07-24T13:24:22.227Z,4.90
2018-07-24T13:26:50.290Z,5.20
2018-07-24T13:29:18.347Z,5.17
2018-07-24T13:31:46.443Z,5.83
2018-07-24T13:34:14.547Z,7.30
2018-07-24T13:36:42.631Z,5.30
2018-07-24T13:39:11.662Z,4.70
2018-07-24T13:41:39.978Z,5.70
2018-07-24T13:44:08.477Z,5.37
2018-07-24T13:46:36.548Z,5.23
2018-07-24T13:49:04.747Z,5.00
2018-07-24T13:51:32.818Z,5.33
2018-07-24T13:54:00.895Z,4.70
2018-07-24T13:56:28.979Z,5.13
2018-07-24T13:58:57.113Z,5.50
2018-07-24T14:01:25.129Z,4.53
2018-07-24T14:03:53.183Z,4.47
2018-07-24T14:06:21.283Z,4.17
2018-07-24T14:08:49.378Z,4.73
2018-07-24T14:11:17.483Z,4.57
2018-07-24T14:13:45.564Z,5.00
2018-07-24T14:16:13.635Z,3.60
2018-07-24T14:18:41.719Z,4.40
2018-07-24T14:21:09.847Z,4.13
2018-07-24T14:23:38.004Z,4.90
2018-07-24T14:26:06.090Z,4.50
2018-07-24T14:28:34.134Z,5.10
2018-07-24T14:31:02.200Z,4.30
2018-07-24T14:33:30.275Z,4.57
2018-07-24T14:35:58.315Z,4.60
2018-07-24T14:38:26.370Z,4.83
2018-07-24T14:40:54.575Z,4.80
2018-07-24T14:43:22.619Z,3.80
2018-07-24T14:45:50.679Z,4.57
2018-07-24T14:48:18.803Z,3.87
2018-07-24T14:50:46.849Z,4.40
2018-07-24T14:53:14.987Z,4.40
2018-07-24T14:55:43.055Z,4.70
2018-07-24T14:58:11.156Z,4.20
2018-07-24T15:00:39.268Z,4.37
2018-07-24T15:03:07.371Z,4.67
2018-07-24T15:05:35.590Z,4.10
2018-07-24T15:08:03.624Z,4.20
2018-07-24T15:10:31.687Z,4.10
2018-07-24T15:12:59.784Z,3.73
2018-07-24T15:15:27.855Z,5.37
2018-07-24T15:17:55.895Z,3.87
2018-07-24T15:20:23.971Z,4.10
2018-07-24T15:22:52.106Z,4.33
2018-07-24T15:25:20.155Z,3.93
2018-07-24T15:27:48.228Z,4.57
2018-07-24T15:30:16.276Z,4.07
2018-07-24T15:32:44.425Z,4.07
2018-07-24T15:35:12.544Z,5.40
2018-07-24T15:37:40.571Z,4.40
2018-07-24T15:40:08.683Z,3.77
2018-07-24T15:42:36.750Z,4.07
2018-07-24T15:45:05.007Z,3.87
2018-07-24T15:47:33.069Z,3.70
2018-07-24T15:50:01.128Z,3.57
2018-07-24T15:52:29.219Z,3.03
2018-07-24T15:54:57.276Z,4.07
2018-07-24T15:57:25.339Z,3.30
2018-07-24T15:59:53.468Z,3.63
2018-07-24T16:02:21.554Z,3.50
2018-07-24T16:04:49.645Z,5.57
2018-07-24T16:07:17.719Z,3.70
2018-07-24T16:09:46.787Z,3.37
2018-07-24T16:12:14.856Z,3.50
2018-07-24T16:14:42.956Z,3.40
2018-07-24T16:17:11.025Z,3.37
2018-07-24T16:19:39.083Z,3.30
2018-07-24T16:22:07.158Z,3.00
2018-07-24T16:24:35.213Z,3.83
2018-07-24T16:27:03.304Z,3.77
2018-07-24T16:29:31.395Z,4.87
2018-07-24T16:31:59.451Z,3.80
2018-07-24T16:34:27.527Z,2.83
2018-07-24T16:36:55.589Z,3.40
2018-07-24T16:39:23.660Z,3.20
2018-07-24T16:41:51.768Z,3.20
2018-07-24T16:44:20.263Z,3.50
2018-07-24T16:46:48.323Z,2.80
2018-07-24T16:49:16.418Z,2.87
2018-07-24T16:51:44.495Z,4.80
2018-07-24T16:54:12.571Z,3.20
2018-07-24T16:56:40.650Z,3.67
2018-07-24T16:59:08.710Z,3.07
2018-07-24T17:01:36.811Z,3.27
2018-07-24T17:04:04.885Z,2.93
2018-07-24T17:06:32.975Z,3.27
2018-07-24T17:09:01.019Z,3.30
2018-07-24T17:11:29.110Z,2.77
2018-07-24T17:13:57.236Z,2.90
2018-07-24T17:16:25.315Z,2.90
2018-07-24T17:18:53.418Z,3.07
2018-07-24T17:21:21.515Z,2.90
2018-07-24T17:23:49.643Z,3.20
2018-07-24T17:26:17.877Z,3.50
2018-07-24T17:28:45.977Z,3.60
2018-07-24T17:31:14.040Z,3.30
2018-07-24T17:33:42.139Z,3.50
2018-07-24T17:36:10.381Z,3.20
2018-07-24T17:38:38.480Z,3.10
2018-07-24T17:41:06.548Z,3.90
2018-07-24T17:43:34.619Z,3.53
2018-07-24T17:46:02.696Z,3.60
2018-07-24T17:48:30.967Z,4.10
2018-07-24T17:50:59.016Z,3.70
2018-07-24T17:53:27.127Z,3.30
2018-07-24T17:55:55.211Z,3.40
2018-07-24T17:58:23.264Z,3.63
2018-07-24T18:00:51.426Z,3.60
2018-07-24T18:03:19.486Z,3.37
2018-07-24T18:05:47.571Z,4.00
2018-07-24T18:08:15.647Z,3.50
2018-07-24T18:10:43.699Z,2.93
2018-07-24T18:13:11.846Z,4.03
2018-07-24T18:15:39.919Z,3.73
2018-07-24T18:18:07.988Z,3.90
2018-07-24T18:20:36.175Z,4.27
2018-07-24T18:23:04.305Z,3.83
2018-07-24T18:25:32.424Z,3.63
2018-07-24T18:28:00.479Z,4.13
2018-07-24T18:30:28.615Z,3.50
2018-07-24T18:32:56.667Z,3.27
2018-07-24T18:35:24.712Z,3.57
2018-07-24T18:37:52.788Z,3.50
2018-07-24T18:40:20.952Z,4.40
2018-07-24T18:42:49.019Z,3.63
2018-07-24T18:45:17.116Z,3.57
2018-07-24T18:47:45.789Z,3.63
2018-07-24T18:50:13.936Z,4.17
2018-07-24T18:52:42.030Z,3.83
2018-07-24T18:55:10.105Z,3.30
2018-07-24T18:57:38.176Z,4.33
2018-07-24T19:00:06.366Z,4.50
2018-07-24T19:02:34.487Z,4.10
2018-07-24T19:05:02.577Z,3.77
2018-07-24T19:07:30.652Z,3.80
2018-07-24T19:09:58.720Z,4.67
2018-07-24T19:12:26.787Z,4.53
2018-07-24T19:14:54.867Z,3.87
2018-07-24T19:17:22.989Z,4.87
2018-07-24T19:19:51.068Z,4.37
2018-07-24T19:22:19.216Z,4.33
2018-07-24T19:24:47.331Z,4.40
2018-07-24T19:27:15.467Z,3.60
2018-07-24T19:29:43.655Z,4.90
2018-07-24T19:32:11.837Z,3.40
2018-07-24T19:34:39.915Z,3.73
2018-07-24T19:37:08.018Z,3.83
2018-07-24T19:39:36.080Z,4.13
2018-07-24T19:42:04.199Z,4.03
2018-07-24T19:44:32.244Z,4.83
2018-07-24T19:47:00.283Z,3.97
2018-07-24T19:49:28.448Z,4.00
2018-07-24T19:51:56.455Z,3.80
2018-07-24T19:54:24.501Z,3.90
2018-07-24T19:56:52.575Z,5.17
2018-07-24T19:59:20.654Z,4.60
2018-07-24T20:01:48.754Z,4.00
2018-07-24T20:04:16.807Z,4.00
2018-07-24T20:06:44.868Z,5.47
2018-07-24T20:09:13.027Z,4.87
2018-07-24T20:11:41.110Z,5.10
2018-07-24T20:14:09.210Z,4.87
2018-07-24T20:16:37.496Z,4.23
2018-07-24T20:19:05.573Z,4.63
2018-07-24T20:21:33.681Z,6.00
2018-07-24T20:24:01.766Z,4.70
2018-07-24T20:26:29.863Z,4.70
2018-07-24T20:28:58.078Z,4.83
2018-07-24T20:31:27.814Z,5.37
2018-07-24T20:33:55.930Z,5.80
2018-07-24T20:36:23.999Z,5.73
2018-07-24T20:38:52.072Z,7.00
2018-07-24T20:41:20.159Z,6.53
2018-07-24T20:43:48.213Z,4.90
2018-07-24T20:46:16.319Z,5.57
2018-07-24T20:48:44.388Z,5.53
2018-07-24T20:51:12.536Z,5.47
2018-07-24T20:53:40.563Z,5.70
2018-07-24T20:56:08.621Z,6.27
2018-07-24T20:58:36.695Z,5.67
2018-07-24T21:01:04.763Z,5.17
2018-07-24T21:03:33.000Z,5.87
2018-07-24T21:06:01.107Z,5.30
2018-07-24T21:08:29.742Z,5.80
2018-07-24T21:10:57.836Z,5.80
2018-07-24T21:13:25.927Z,5.50
2018-07-24T21:15:53.983Z,4.80
2018-07-24T21:18:22.089Z,5.73
2018-07-24T21:20:50.188Z,5.20
2018-07-24T21:23:18.250Z,5.23
2018-07-24T21:25:46.348Z,4.87
2018-07-24T21:28:14.434Z,4.67
2018-07-24T21:30:42.523Z,5.20
2018-07-24T21:33:10.577Z,6.20
2018-07-24T21:35:38.667Z,6.33
2018-07-24T21:38:06.772Z,6.63
2018-07-24T21:40:34.834Z,6.00
2018-07-24T21:43:02.943Z,6.13
2018-07-24T21:45:31.017Z,5.20
2018-07-24T21:47:59.083Z,6.30
2018-07-24T21:50:27.347Z,6.03
2018-07-24T21:52:55.379Z,5.80
2018-07-24T21:55:23.459Z,5.87
2018-07-24T21:57:51.962Z,6.00
2018-07-24T22:00:20.088Z,5.90
2018-07-24T22:02:48.196Z,7.30
2018-07-24T22:05:16.251Z,5.73
2018-07-24T22:07:44.327Z,6.17
2018-07-24T22:10:17.747Z,6.20
2018-07-24T22:12:46.019Z,5.20
2018-07-24T22:15:20.316Z,5.77
2018-07-24T22:17:48.431Z,5.60
2018-07-24T22:20:16.848Z,6.50
2018-07-24T22:22:45.076Z,6.03
2018-07-24T22:25:13.247Z,6.53
2018-07-24T22:27:41.396Z,6.43
2018-07-24T22:30:10.252Z,6.20
2018-07-24T22:32:38.531Z,6.13
2018-07-24T22:35:06.959Z,6.43
2018-07-24T22:37:35.422Z,7.70
2018-07-24T22:40:03.520Z,7.57
2018-07-24T22:42:31.615Z,6.87
2018-07-24T22:44:59.694Z,6.87
2018-07-24T22:47:27.976Z,7.40
2018-07-24T22:49:56.047Z,6.83
2018-07-24T22:52:24.183Z,6.47
2018-07-24T22:54:52.364Z,7.27
2018-07-24T22:57:20.512Z,6.43
2018-07-24T22:59:48.571Z,6.87
2018-07-24T23:02:16.615Z,7.60
2018-07-24T23:04:44.690Z,6.60
2018-07-24T23:07:12.762Z,6.60
2018-07-24T23:09:41.160Z,6.57
2018-07-24T23:12:09.056Z,6.87
2018-07-24T23:14:37.203Z,6.67
2018-07-24T23:17:05.297Z,6.87
2018-07-24T23:19:33.392Z,7.20
2018-07-24T23:22:01.475Z,7.73
2018-07-24T23:24:29.535Z,7.50
2018-07-24T23:27:04.204Z,7.30
2018-07-24T23:29:32.256Z,8.00
2018-07-24T23:32:00.323Z,7.13
2018-07-24T23:34:28.387Z,6.40
2018-07-24T23:36:56.489Z,6.43
2018-07-24T23:39:24.557Z,7.70
2018-07-24T23:41:52.611Z,7.50
2018-07-24T23:44:20.719Z,6.97
2018-07-24T23:46:48.799Z,6.80
2018-07-24T23:49:16.891Z,6.63
2018-07-24T23:51:45.015Z,7.20
2018-07-24T23:54:13.081Z,7.03
2018-07-24T23:56:41.195Z,6.83
2018-07-24T23:59:09.348Z,7.50
